Terminal Aerodrome Forecast
Issued by NWS Knoxville/Tri Cities, TN

Home | Current Version | Previous Version | Text Only | Print | Product List | Glossary On
Versions: 1 2 3 4 5 6 7 8 9 10 11 12 13 14 15 16 17 18 19 20 21 22 23 24
000
FTUS44 KMRX 201215 AAA
TAFTRI
TAF AMD
KTRI 201215Z 2012/2112 00000KT 3/4SM BR BKN003
     FM201300 00000KT 4SM BR FEW250
     FM201330 VRB04KT P6SM FEW050 SCT250
     FM210100 00000KT P6SM BKN080
     FM210700 00000KT P6SM FEW050 SCT250
     FM211000 00000KT 2SM BR SCT004=

USA.gov is the U.S. government's official web portal to all federal, state and local government web resources and services.